Buenos Aires, Argentina

5:26 AM ART en Agosto 05, 2015 (GMT -0300)
Chacarita | | Change Station
CLOSE
Current Station
Estación meteorológica personal
Location: Buenos Aires, AUTONOMOUS CITY OF BUENOS AIRES
Altura: 82 ft
Estaciones meteorológicas cercanas

Alt 82 ft 34.58 °S, 58.45 °W | Updated 6 seconds ago

Scattered Clouds
Nubes dispersas
58.3 ° F
Sensación térmica 58.3 ° F
N
0.0
Viento Variable Viento desde Oeste

Hoy
Alta -- | Baja -- ° F
--% Posibilidad de precipitaciones
Ayer
Alta -- | Baja -- ° F
Precip. -- pul
7:44 AM 6:15 PM
Gibosa menguante, 69% visible
Presión 29.98 pul
Visibilidad 6.2 Millas
Nubes Nubes dispersas 4200 ft
Nubes dispersas 10000 ft
Punto de rocío 44 ° F
Humedad 60%
Precipitaciones 0.00 pul
Espesor de la nieve No disponible.
UV 0 de una escala de 12
Polen No disponible.
Calidad del aire No disponible.
Flu Activity No disponible.
METAR SABE 050800Z 07007KT 9999 SCT042 SCT100 13/08 Q1015

More Conditions Fewer Conditions

Presión 29.98 pul
Visibilidad 6.2 Millas
Nubes Nubes dispersas 4200 ft
Nubes dispersas 10000 ft
Punto de rocío 44 ° F
Humedad 60%
Precipitaciones 0.00 pul
Espesor de la nieve No disponible.
UV 0 de una escala de 12
Polen No disponible.
Calidad del aire No disponible.
Flu Activity No disponible.
METAR SABE 050800Z 07007KT 9999 SCT042 SCT100 13/08 Q1015

More Conditions Fewer Conditions

10-Day Weather Forecast

×

Almanac

Astronomía

Aug. 05, 2015 Salida Puesta
Hora real
Crepúsculo civil
Crepúsculo náutico
Crepúsculo astronómico
Luna
Horas de luz
Horas de luz
Tomorrow will be .
, % of the Moon is Illuminated

Extremos de hoy

Máximos del país Bajas del país

Community

WunderPhotos

Upload Photos

1,844,105 ¡fotos cargadas!

WunderBlogs® & News

Nearby

Calidad del aire

  Calidad del aire Índice AQ Contaminante
Not available.

Grosos de nieve

Estación Profundido Altura

Actividad de terremotos

Ciudad Distance Mag. Tiempo y dato
Magnitud mínima muestra es 2,5.

Temperaturas de aguas costeras

Lugar Temperatura

Stations

Estaciones meteorológicas cercanas

Ubicación de la estación Temp. Vientos helados Punto de rocío Humedad Viento Precip. Alt Actualizado Tipo